sensor_id;sensor_type;location;lat;lon;timestamp;P1;durP1;ratioP1;P2;durP2;ratioP2
46457;SDS011;32155;54.076;12.092;2023-02-01T02:31:47;14.23;;;2.35;;
46457;SDS011;32155;54.076;12.092;2023-02-01T02:40:36;22.88;;;2.83;;
46457;SDS011;32155;54.076;12.092;2023-02-01T02:43:42;24.33;;;2.95;;
46457;SDS011;32155;54.076;12.092;2023-02-01T02:46:46;19.13;;;2.58;;
46457;SDS011;32155;54.076;12.092;2023-02-01T02:53:13;15.43;;;2.03;;
46457;SDS011;32155;54.076;12.092;2023-02-01T02:56:25;11.07;;;1.60;;
46457;SDS011;32155;54.076;12.092;2023-02-01T02:59:24;11.73;;;1.58;;
46457;SDS011;32155;54.076;12.092;2023-02-01T03:02:19;11.50;;;1.40;;
46457;SDS011;32155;54.076;12.092;2023-02-01T03:05:30;7.65;;;1.27;;
46457;SDS011;32155;54.076;12.092;2023-02-01T03:08:16;8.25;;;1.40;;
46457;SDS011;32155;54.076;12.092;2023-02-01T03:11:18;9.15;;;1.73;;
46457;SDS011;32155;54.076;12.092;2023-02-01T03:14:36;10.07;;;1.92;;
46457;SDS011;32155;54.076;12.092;2023-02-01T03:18:04;12.07;;;2.38;;
46457;SDS011;32155;54.076;12.092;2023-02-01T03:20:36;15.45;;;3.00;;
46457;SDS011;32155;54.076;12.092;2023-02-01T03:23:17;19.00;;;2.72;;
46457;SDS011;32155;54.076;12.092;2023-02-01T03:26:13;25.08;;;4.07;;
46457;SDS011;32155;54.076;12.092;2023-02-01T03:33:27;25.15;;;3.95;;
46457;SDS011;32155;54.076;12.092;2023-02-01T03:43:10;41.00;;;4.32;;
46457;SDS011;32155;54.076;12.092;2023-02-01T03:46:27;35.70;;;4.78;;
46457;SDS011;32155;54.076;12.092;2023-02-01T06:42:23;19.07;;;2.60;;
46457;SDS011;32155;54.076;12.092;2023-02-01T06:52:44;13.80;;;2.10;;
46457;SDS011;32155;54.076;12.092;2023-02-01T06:55:25;9.90;;;1.85;;
46457;SDS011;32155;54.076;12.092;2023-02-01T06:58:03;13.65;;;2.17;;
46457;SDS011;32155;54.076;12.092;2023-02-01T07:03:52;7.80;;;1.40;;
46457;SDS011;32155;54.076;12.092;2023-02-01T07:13:04;11.32;;;1.63;;
46457;SDS011;32155;54.076;12.092;2023-02-01T07:15:44;7.97;;;1.65;;
46457;SDS011;32155;54.076;12.092;2023-02-01T07:18:39;10.00;;;1.65;;
46457;SDS011;32155;54.076;12.092;2023-02-01T07:21:44;12.48;;;1.95;;
46457;SDS011;32155;54.076;12.092;2023-02-01T07:30:25;18.55;;;2.13;;
46457;SDS011;32155;54.076;12.092;2023-02-01T07:32:54;16.20;;;2.60;;
46457;SDS011;32155;54.076;12.092;2023-02-01T07:36:05;13.27;;;2.10;;
46457;SDS011;32155;54.076;12.092;2023-02-01T07:42:50;7.00;;;1.65;;
46457;SDS011;32155;54.076;12.092;2023-02-01T07:45:56;18.65;;;2.22;;
46457;SDS011;32155;54.076;12.092;2023-02-01T07:58:17;15.65;;;2.03;;
46457;SDS011;32155;54.076;12.092;2023-02-01T08:00:43;12.93;;;2.17;;
46457;SDS011;32155;54.076;12.092;2023-02-01T08:03:35;16.17;;;2.35;;
46457;SDS011;32155;54.076;12.092;2023-02-01T08:06:04;16.75;;;2.17;;
46457;SDS011;32155;54.076;12.092;2023-02-01T08:08:50;19.95;;;2.95;;
46457;SDS011;32155;54.076;12.092;2023-02-01T08:11:38;12.93;;;1.60;;
46457;SDS011;32155;54.076;12.092;2023-02-01T08:14:06;19.50;;;3.33;;
46457;SDS011;32155;54.076;12.092;2023-02-01T08:17:10;12.65;;;2.45;;
46457;SDS011;32155;54.076;12.092;2023-02-01T08:19:45;22.58;;;3.10;;
46457;SDS011;32155;54.076;12.092;2023-02-01T08:22:23;27.00;;;3.40;;
46457;SDS011;32155;54.076;12.092;2023-02-01T08:25:07;22.25;;;3.58;;
46457;SDS011;32155;54.076;12.092;2023-02-01T08:27:56;19.63;;;3.20;;
46457;SDS011;32155;54.076;12.092;2023-02-01T08:31:11;18.20;;;3.45;;
46457;SDS011;32155;54.076;12.092;2023-02-01T08:34:17;23.85;;;3.28;;
46457;SDS011;32155;54.076;12.092;2023-02-01T08:43:56;19.10;;;3.60;;
46457;SDS011;32155;54.076;12.092;2023-02-01T10:04:30;6.70;;;1.20;;
46457;SDS011;32155;54.076;12.092;2023-02-01T10:09:42;7.35;;;1.48;;
46457;SDS011;32155;54.076;12.092;2023-02-01T13:09:25;24.80;;;5.47;;
46457;SDS011;32155;54.076;12.092;2023-02-01T13:29:19;26.27;;;4.57;;
46457;SDS011;32155;54.076;12.092;2023-02-01T13:44:14;3.78;;;0.77;;
46457;SDS011;32155;54.076;12.092;2023-02-01T13:46:52;2.55;;;0.60;;
46457;SDS011;32155;54.076;12.092;2023-02-01T13:53:35;5.25;;;0.70;;
46457;SDS011;32155;54.076;12.092;2023-02-01T17:04:34;33.40;;;3.83;;
46457;SDS011;32155;54.076;12.092;2023-02-01T17:07:00;31.90;;;3.75;;
46457;SDS011;32155;54.076;12.092;2023-02-01T17:09:33;31.33;;;4.35;;
46457;SDS011;32155;54.076;12.092;2023-02-01T17:12:01;38.22;;;5.80;;
46457;SDS011;32155;54.076;12.092;2023-02-01T17:14:26;34.72;;;4.03;;
46457;SDS011;32155;54.076;12.092;2023-02-01T17:16:55;37.08;;;4.65;;
46457;SDS011;32155;54.076;12.092;2023-02-01T17:21:54;36.75;;;4.97;;
46457;SDS011;32155;54.076;12.092;2023-02-01T17:24:24;33.42;;;4.70;;
46457;SDS011;32155;54.076;12.092;2023-02-01T17:29:26;47.50;;;6.50;;
46457;SDS011;32155;54.076;12.092;2023-02-01T17:31:53;30.52;;;4.22;;
46457;SDS011;32155;54.076;12.092;2023-02-01T17:34:21;37.97;;;5.20;;
46457;SDS011;32155;54.076;12.092;2023-02-01T17:36:55;42.33;;;6.05;;
46457;SDS011;32155;54.076;12.092;2023-02-01T17:39:22;43.22;;;6.93;;
46457;SDS011;32155;54.076;12.092;2023-02-01T17:42:08;41.10;;;5.47;;
46457;SDS011;32155;54.076;12.092;2023-02-01T17:44:36;33.13;;;5.68;;
46457;SDS011;32155;54.076;12.092;2023-02-01T17:47:04;39.17;;;5.60;;
46457;SDS011;32155;54.076;12.092;2023-02-01T17:49:30;35.08;;;5.70;;
46457;SDS011;32155;54.076;12.092;2023-02-01T17:51:59;38.60;;;5.82;;
46457;SDS011;32155;54.076;12.092;2023-02-01T17:54:28;51.30;;;8.68;;
46457;SDS011;32155;54.076;12.092;2023-02-01T17:56:53;37.28;;;5.97;;
46457;SDS011;32155;54.076;12.092;2023-02-01T17:59:19;34.35;;;6.18;;
46457;SDS011;32155;54.076;12.092;2023-02-01T18:01:44;35.90;;;4.95;;
46457;SDS011;32155;54.076;12.092;2023-02-01T18:04:15;39.47;;;4.55;;
46457;SDS011;32155;54.076;12.092;2023-02-01T18:06:42;32.97;;;5.32;;
46457;SDS011;32155;54.076;12.092;2023-02-01T18:09:12;44.42;;;5.28;;
46457;SDS011;32155;54.076;12.092;2023-02-01T18:11:40;52.63;;;6.22;;
46457;SDS011;32155;54.076;12.092;2023-02-01T18:14:09;39.90;;;5.05;;
46457;SDS011;32155;54.076;12.092;2023-02-01T18:16:37;41.67;;;6.07;;
46457;SDS011;32155;54.076;12.092;2023-02-01T18:19:02;47.40;;;5.72;;
46457;SDS011;32155;54.076;12.092;2023-02-01T18:21:32;31.73;;;4.80;;
46457;SDS011;32155;54.076;12.092;2023-02-01T18:23:58;35.40;;;5.07;;
46457;SDS011;32155;54.076;12.092;2023-02-01T18:26:28;39.45;;;5.32;;
46457;SDS011;32155;54.076;12.092;2023-02-01T18:29:05;38.25;;;5.38;;
46457;SDS011;32155;54.076;12.092;2023-02-01T18:32:22;37.65;;;5.43;;
46457;SDS011;32155;54.076;12.092;2023-02-01T18:51:42;52.05;;;6.22;;
46457;SDS011;32155;54.076;12.092;2023-02-01T18:55:33;42.00;;;6.90;;
46457;SDS011;32155;54.076;12.092;2023-02-01T19:09:33;43.75;;;7.95;;
46457;SDS011;32155;54.076;12.092;2023-02-01T19:15:56;48.38;;;6.55;;
46457;SDS011;32155;54.076;12.092;2023-02-01T19:19:31;46.55;;;6.45;;
46457;SDS011;32155;54.076;12.092;2023-02-01T19:29:54;48.95;;;6.22;;
46457;SDS011;32155;54.076;12.092;2023-02-01T19:33:31;34.38;;;6.60;;
46457;SDS011;32155;54.076;12.092;2023-02-01T19:35:58;37.55;;;5.45;;
46457;SDS011;32155;54.076;12.092;2023-02-01T19:38:27;37.78;;;6.28;;
46457;SDS011;32155;54.076;12.092;2023-02-01T19:40:54;44.83;;;6.30;;
46457;SDS011;32155;54.076;12.092;2023-02-01T19:45:50;50.50;;;6.88;;
46457;SDS011;32155;54.076;12.092;2023-02-01T19:48:17;41.72;;;5.95;;
46457;SDS011;32155;54.076;12.092;2023-02-01T19:50:45;41.75;;;6.53;;
46457;SDS011;32155;54.076;12.092;2023-02-01T19:53:11;51.75;;;6.72;;
46457;SDS011;32155;54.076;12.092;2023-02-01T19:55:37;42.78;;;6.07;;
46457;SDS011;32155;54.076;12.092;2023-02-01T19:58:03;43.78;;;6.88;;
46457;SDS011;32155;54.076;12.092;2023-02-01T20:03:30;36.75;;;5.03;;
46457;SDS011;32155;54.076;12.092;2023-02-01T20:05:57;36.85;;;6.15;;
46457;SDS011;32155;54.076;12.092;2023-02-01T20:08:26;37.08;;;6.25;;
46457;SDS011;32155;54.076;12.092;2023-02-01T20:11:04;46.40;;;6.70;;
46457;SDS011;32155;54.076;12.092;2023-02-01T20:13:31;43.00;;;6.35;;
46457;SDS011;32155;54.076;12.092;2023-02-01T20:16:01;52.90;;;5.72;;
46457;SDS011;32155;54.076;12.092;2023-02-01T20:18:27;41.50;;;6.43;;
46457;SDS011;32155;54.076;12.092;2023-02-01T20:20:56;40.95;;;5.05;;
46457;SDS011;32155;54.076;12.092;2023-02-01T20:23:33;36.70;;;5.07;;
46457;SDS011;32155;54.076;12.092;2023-02-01T20:26:05;32.30;;;4.85;;
46457;SDS011;32155;54.076;12.092;2023-02-01T20:28:32;38.15;;;5.15;;
46457;SDS011;32155;54.076;12.092;2023-02-01T20:30:59;28.02;;;4.93;;
46457;SDS011;32155;54.076;12.092;2023-02-01T20:33:25;32.55;;;4.60;;
46457;SDS011;32155;54.076;12.092;2023-02-01T20:35:53;23.58;;;4.82;;
46457;SDS011;32155;54.076;12.092;2023-02-01T20:38:23;36.63;;;4.95;;
46457;SDS011;32155;54.076;12.092;2023-02-01T20:40:49;25.77;;;4.20;;
46457;SDS011;32155;54.076;12.092;2023-02-01T20:43:15;25.33;;;3.83;;
46457;SDS011;32155;54.076;12.092;2023-02-01T20:45:41;31.13;;;4.28;;
46457;SDS011;32155;54.076;12.092;2023-02-01T20:48:08;22.92;;;3.30;;
46457;SDS011;32155;54.076;12.092;2023-02-01T20:50:37;20.80;;;3.33;;
46457;SDS011;32155;54.076;12.092;2023-02-01T20:55:42;20.58;;;3.67;;
46457;SDS011;32155;54.076;12.092;2023-02-01T20:58:08;21.65;;;4.00;;
46457;SDS011;32155;54.076;12.092;2023-02-01T21:00:36;21.40;;;3.58;;
46457;SDS011;32155;54.076;12.092;2023-02-01T21:03:05;23.50;;;4.38;;
46457;SDS011;32155;54.076;12.092;2023-02-01T21:05:32;26.23;;;4.10;;
46457;SDS011;32155;54.076;12.092;2023-02-01T21:08:08;28.25;;;3.67;;
46457;SDS011;32155;54.076;12.092;2023-02-01T21:10:36;29.60;;;4.00;;
46457;SDS011;32155;54.076;12.092;2023-02-01T21:13:02;31.30;;;4.25;;
46457;SDS011;32155;54.076;12.092;2023-02-01T21:15:29;24.30;;;3.72;;
46457;SDS011;32155;54.076;12.092;2023-02-01T21:17:58;26.70;;;4.20;;
46457;SDS011;32155;54.076;12.092;2023-02-01T21:20:25;27.25;;;4.78;;
46457;SDS011;32155;54.076;12.092;2023-02-01T21:22:56;29.13;;;4.30;;
46457;SDS011;32155;54.076;12.092;2023-02-01T21:25:24;28.65;;;4.80;;
46457;SDS011;32155;54.076;12.092;2023-02-01T21:27:51;38.25;;;5.80;;
46457;SDS011;32155;54.076;12.092;2023-02-01T21:30:19;23.13;;;4.32;;
46457;SDS011;32155;54.076;12.092;2023-02-01T21:32:47;27.33;;;3.85;;
46457;SDS011;32155;54.076;12.092;2023-02-01T21:35:14;36.85;;;5.45;;
46457;SDS011;32155;54.076;12.092;2023-02-01T21:37:41;36.08;;;4.40;;
46457;SDS011;32155;54.076;12.092;2023-02-01T21:40:07;27.25;;;3.78;;
46457;SDS011;32155;54.076;12.092;2023-02-01T21:42:34;28.70;;;4.35;;
46457;SDS011;32155;54.076;12.092;2023-02-01T21:44:59;36.80;;;4.25;;
46457;SDS011;32155;54.076;12.092;2023-02-01T21:47:26;35.50;;;4.15;;
46457;SDS011;32155;54.076;12.092;2023-02-01T21:49:52;26.25;;;4.20;;
46457;SDS011;32155;54.076;12.092;2023-02-01T21:52:18;21.67;;;3.42;;
46457;SDS011;32155;54.076;12.092;2023-02-01T21:54:46;28.48;;;4.43;;
46457;SDS011;32155;54.076;12.092;2023-02-01T21:57:12;44.40;;;5.30;;
46457;SDS011;32155;54.076;12.092;2023-02-01T21:59:39;32.38;;;4.13;;
46457;SDS011;32155;54.076;12.092;2023-02-01T22:02:09;43.47;;;5.45;;
46457;SDS011;32155;54.076;12.092;2023-02-01T22:04:41;36.60;;;5.03;;
46457;SDS011;32155;54.076;12.092;2023-02-01T22:07:08;36.95;;;5.60;;
46457;SDS011;32155;54.076;12.092;2023-02-01T22:09:35;33.00;;;5.03;;
46457;SDS011;32155;54.076;12.092;2023-02-01T22:12:01;45.80;;;6.43;;
46457;SDS011;32155;54.076;12.092;2023-02-01T22:14:27;39.50;;;4.97;;
46457;SDS011;32155;54.076;12.092;2023-02-01T22:16:55;35.55;;;5.50;;
46457;SDS011;32155;54.076;12.092;2023-02-01T22:19:21;35.45;;;5.15;;
46457;SDS011;32155;54.076;12.092;2023-02-01T22:21:47;36.72;;;5.57;;
46457;SDS011;32155;54.076;12.092;2023-02-01T22:24:14;53.38;;;6.13;;
46457;SDS011;32155;54.076;12.092;2023-02-01T22:26:41;36.42;;;5.15;;
46457;SDS011;32155;54.076;12.092;2023-02-01T22:29:07;40.83;;;5.82;;
46457;SDS011;32155;54.076;12.092;2023-02-01T22:31:37;39.47;;;5.85;;
46457;SDS011;32155;54.076;12.092;2023-02-01T22:34:03;49.38;;;6.15;;
46457;SDS011;32155;54.076;12.092;2023-02-01T22:36:29;33.80;;;6.10;;
46457;SDS011;32155;54.076;12.092;2023-02-01T22:38:55;30.08;;;5.18;;
46457;SDS011;32155;54.076;12.092;2023-02-01T22:41:22;42.95;;;6.43;;
46457;SDS011;32155;54.076;12.092;2023-02-01T22:43:48;39.92;;;5.07;;
46457;SDS011;32155;54.076;12.092;2023-02-01T22:46:16;41.20;;;6.00;;
46457;SDS011;32155;54.076;12.092;2023-02-01T22:48:44;39.08;;;4.72;;
46457;SDS011;32155;54.076;12.092;2023-02-01T22:51:15;34.55;;;4.90;;
46457;SDS011;32155;54.076;12.092;2023-02-01T22:53:48;28.40;;;3.80;;
46457;SDS011;32155;54.076;12.092;2023-02-01T22:56:24;33.00;;;4.60;;
46457;SDS011;32155;54.076;12.092;2023-02-01T22:58:55;28.65;;;4.00;;
46457;SDS011;32155;54.076;12.092;2023-02-01T23:01:26;29.65;;;4.13;;
46457;SDS011;32155;54.076;12.092;2023-02-01T23:03:56;35.83;;;4.68;;
46457;SDS011;32155;54.076;12.092;2023-02-01T23:06:22;23.27;;;4.60;;
46457;SDS011;32155;54.076;12.092;2023-02-01T23:08:52;28.95;;;4.70;;
46457;SDS011;32155;54.076;12.092;2023-02-01T23:11:22;29.77;;;5.07;;
46457;SDS011;32155;54.076;12.092;2023-02-01T23:13:48;34.38;;;4.32;;
46457;SDS011;32155;54.076;12.092;2023-02-01T23:16:14;27.77;;;3.95;;
46457;SDS011;32155;54.076;12.092;2023-02-01T23:18:40;34.78;;;4.53;;
46457;SDS011;32155;54.076;12.092;2023-02-01T23:21:13;27.40;;;3.78;;
46457;SDS011;32155;54.076;12.092;2023-02-01T23:24:02;38.45;;;5.40;;
46457;SDS011;32155;54.076;12.092;2023-02-01T23:26:27;27.98;;;4.13;;
46457;SDS011;32155;54.076;12.092;2023-02-01T23:28:55;37.50;;;4.35;;
46457;SDS011;32155;54.076;12.092;2023-02-01T23:31:25;19.77;;;3.50;;
46457;SDS011;32155;54.076;12.092;2023-02-01T23:33:56;37.63;;;4.72;;
46457;SDS011;32155;54.076;12.092;2023-02-01T23:36:25;34.85;;;4.80;;
46457;SDS011;32155;54.076;12.092;2023-02-01T23:38:52;24.95;;;3.55;;
46457;SDS011;32155;54.076;12.092;2023-02-01T23:41:19;34.90;;;5.03;;
46457;SDS011;32155;54.076;12.092;2023-02-01T23:43:47;29.48;;;3.80;;
46457;SDS011;32155;54.076;12.092;2023-02-01T23:46:36;28.25;;;4.13;;
46457;SDS011;32155;54.076;12.092;2023-02-01T23:49:04;35.22;;;4.38;;
46457;SDS011;32155;54.076;12.092;2023-02-01T23:51:31;32.38;;;5.63;;
46457;SDS011;32155;54.076;12.092;2023-02-01T23:53:58;22.70;;;3.83;;
46457;SDS011;32155;54.076;12.092;2023-02-01T23:56:28;31.35;;;4.18;;
46457;SDS011;32155;54.076;12.092;2023-02-01T23:59:02;42.50;;;4.15;;
